createdAt,value
2017-01-15T00:00:16.688Z,0
2017-01-15T00:01:25.759Z,0
2017-01-15T00:02:35.217Z,0
2017-01-15T00:03:43.904Z,0
2017-01-15T00:04:52.967Z,0
2017-01-15T00:06:01.674Z,0
2017-01-15T00:07:10.836Z,0
2017-01-15T00:08:20.296Z,0
2017-01-15T00:09:29.362Z,0
2017-01-15T00:10:38.827Z,0
2017-01-15T00:11:47.504Z,0
2017-01-15T00:12:56.188Z,0
2017-01-15T00:14:05.637Z,0
2017-01-15T00:15:15.110Z,0
2017-01-15T00:16:24.175Z,0
2017-01-15T00:17:33.244Z,0
2017-01-15T00:18:41.940Z,0
2017-01-15T00:19:51.018Z,0
2017-01-15T00:21:00.474Z,0
2017-01-15T00:22:09.150Z,0
2017-01-15T00:23:18.233Z,0
2017-01-15T00:24:27.072Z,0
2017-01-15T00:25:36.146Z,0
2017-01-15T00:26:44.824Z,0
2017-01-15T00:27:54.275Z,0
2017-01-15T00:29:03.339Z,0
2017-01-15T00:30:12.309Z,0
2017-01-15T00:31:20.992Z,0
2017-01-15T00:32:30.843Z,0
2017-01-15T00:33:39.527Z,0
2017-01-15T00:34:49.389Z,0
2017-01-15T00:35:58.059Z,0
2017-01-15T00:37:07.138Z,0
2017-01-15T00:38:16.594Z,0
2017-01-15T00:39:26.435Z,0
2017-01-15T00:40:35.502Z,0
2017-01-15T00:41:44.916Z,0
2017-01-15T00:42:55.548Z,0
2017-01-15T00:44:04.611Z,0
2017-01-15T00:45:14.065Z,0
2017-01-15T00:46:23.518Z,0
2017-01-15T00:47:32.889Z,0
2017-01-15T00:48:41.582Z,0
2017-01-15T00:49:51.061Z,0
2017-01-15T00:50:59.740Z,0
2017-01-15T00:52:09.199Z,0
2017-01-15T00:53:18.610Z,0
2017-01-15T00:54:27.690Z,0
2017-01-15T00:55:36.390Z,0
2017-01-15T00:56:45.462Z,0
2017-01-15T00:57:54.925Z,0
2017-01-15T00:59:03.954Z,0
2017-01-15T01:00:12.637Z,0
2017-01-15T01:01:22.490Z,0
2017-01-15T01:02:31.172Z,0
2017-01-15T01:03:41.017Z,0
2017-01-15T01:04:50.090Z,0
2017-01-15T01:05:59.943Z,0
2017-01-15T01:07:09.022Z,0
2017-01-15T01:08:18.487Z,0
2017-01-15T01:09:27.564Z,0
2017-01-15T01:10:36.594Z,0
2017-01-15T01:11:46.060Z,0
2017-01-15T01:12:55.130Z,0
2017-01-15T01:14:04.582Z,0
2017-01-15T01:15:13.644Z,0
2017-01-15T01:16:22.625Z,0
2017-01-15T01:17:31.692Z,0
2017-01-15T01:18:41.143Z,0
2017-01-15T01:19:50.220Z,0
2017-01-15T01:20:59.678Z,0
2017-01-15T01:22:09.825Z,0
2017-01-15T01:23:18.895Z,0
2017-01-15T01:24:27.574Z,0
2017-01-15T01:25:37.046Z,0
2017-01-15T01:26:45.724Z,0
2017-01-15T01:27:55.916Z,0
2017-01-15T01:29:05.385Z,0
2017-01-15T01:30:14.452Z,0
2017-01-15T01:31:23.915Z,0
2017-01-15T01:32:33.001Z,0
2017-01-15T01:33:42.767Z,0
2017-01-15T01:34:51.834Z,0
2017-01-15T01:36:00.899Z,0
2017-01-15T01:37:09.576Z,0
2017-01-15T01:38:18.295Z,0
2017-01-15T01:39:27.858Z,0
2017-01-15T01:40:36.552Z,0
2017-01-15T01:41:46.003Z,0
2017-01-15T01:42:55.082Z,0
2017-01-15T01:44:04.944Z,0
2017-01-15T01:45:15.289Z,0
2017-01-15T01:46:24.365Z,0
2017-01-15T01:47:33.818Z,0
2017-01-15T01:48:42.893Z,0
2017-01-15T01:49:51.958Z,0
2017-01-15T01:51:01.152Z,0
2017-01-15T01:52:10.218Z,0
2017-01-15T01:53:18.889Z,0
2017-01-15T01:54:28.351Z,0
2017-01-15T01:55:37.807Z,0
2017-01-15T01:56:46.651Z,0
2017-01-15T01:57:55.716Z,0
2017-01-15T01:59:04.778Z,0
2017-01-15T02:00:13.470Z,0
2017-01-15T02:01:22.549Z,0
2017-01-15T02:02:31.218Z,0
2017-01-15T02:03:40.280Z,0
2017-01-15T02:04:50.128Z,0
2017-01-15T02:05:58.809Z,0
2017-01-15T02:07:08.654Z,0
2017-01-15T02:08:18.111Z,0
2017-01-15T02:09:26.782Z,0
2017-01-15T02:10:36.250Z,0
2017-01-15T02:11:45.703Z,0
2017-01-15T02:12:55.170Z,0
2017-01-15T02:14:04.983Z,0
2017-01-15T02:15:14.498Z,0
2017-01-15T02:16:23.960Z,0
2017-01-15T02:17:33.023Z,0
2017-01-15T02:18:41.708Z,0
2017-01-15T02:19:51.096Z,0
2017-01-15T02:21:00.559Z,0
2017-01-15T02:22:09.257Z,0
2017-01-15T02:23:18.326Z,0
2017-01-15T02:24:27.788Z,0
2017-01-15T02:25:36.458Z,0
2017-01-15T02:26:45.533Z,0
2017-01-15T02:27:54.598Z,0
2017-01-15T02:29:03.280Z,0
2017-01-15T02:30:12.346Z,0
2017-01-15T02:31:21.713Z,0
2017-01-15T02:32:30.783Z,0
2017-01-15T02:33:39.856Z,0
2017-01-15T02:34:49.304Z,0
2017-01-15T02:35:57.975Z,0
2017-01-15T02:37:07.433Z,0
2017-01-15T02:38:16.110Z,0
2017-01-15T02:39:24.796Z,0
2017-01-15T02:40:33.464Z,0
2017-01-15T02:41:42.520Z,0
2017-01-15T02:42:51.407Z,0
2017-01-15T02:44:00.884Z,0
2017-01-15T02:45:10.345Z,0
2017-01-15T02:46:19.796Z,0
2017-01-15T02:47:28.472Z,0
2017-01-15T02:48:37.933Z,0
2017-01-15T02:49:46.612Z,0
2017-01-15T02:50:56.066Z,0
2017-01-15T02:52:05.417Z,0
2017-01-15T02:53:16.150Z,0
2017-01-15T02:54:24.977Z,0
2017-01-15T02:55:33.656Z,0
2017-01-15T02:56:42.723Z,0
2017-01-15T02:57:51.789Z,0
2017-01-15T02:59:02.038Z,0
2017-01-15T03:00:11.420Z,0
2017-01-15T03:01:20.889Z,0
2017-01-15T03:02:29.964Z,0
2017-01-15T03:03:39.804Z,0
2017-01-15T03:04:48.880Z,0
2017-01-15T03:05:58.248Z,0
2017-01-15T03:07:07.706Z,0
2017-01-15T03:08:16.387Z,0
2017-01-15T03:09:25.452Z,0
2017-01-15T03:10:34.526Z,0
2017-01-15T03:11:43.958Z,0
2017-01-15T03:12:53.422Z,0
2017-01-15T03:14:03.279Z,0
2017-01-15T03:15:12.737Z,0
2017-01-15T03:16:21.810Z,0
2017-01-15T03:17:31.365Z,0
2017-01-15T03:18:40.620Z,0
2017-01-15T03:19:50.472Z,0
2017-01-15T03:20:59.153Z,0
2017-01-15T03:22:08.622Z,0
2017-01-15T03:23:18.043Z,0
2017-01-15T03:24:27.111Z,0
2017-01-15T03:25:36.181Z,0
2017-01-15T03:26:45.251Z,0
2017-01-15T03:27:54.315Z,0
2017-01-15T03:29:03.921Z,0
2017-01-15T03:30:12.610Z,0
2017-01-15T03:31:22.075Z,0
2017-01-15T03:32:30.748Z,0
2017-01-15T03:33:39.424Z,0
2017-01-15T03:34:48.845Z,0
2017-01-15T03:35:58.297Z,0
2017-01-15T03:37:07.750Z,0
2017-01-15T03:38:17.214Z,0
2017-01-15T03:39:26.675Z,0
2017-01-15T03:40:35.737Z,0
2017-01-15T03:41:44.419Z,0
2017-01-15T03:42:53.093Z,0
2017-01-15T03:44:01.767Z,0
2017-01-15T03:45:10.830Z,0
2017-01-15T03:46:19.660Z,0
2017-01-15T03:47:28.732Z,0
2017-01-15T03:48:37.795Z,0
2017-01-15T03:49:46.859Z,0
2017-01-15T03:50:55.932Z,0
2017-01-15T03:52:04.767Z,0
2017-01-15T03:53:13.858Z,0
2017-01-15T03:54:22.532Z,0
2017-01-15T03:55:31.215Z,0
2017-01-15T03:56:39.908Z,0
2017-01-15T03:57:49.128Z,0
2017-01-15T03:58:58.201Z,0
2017-01-15T04:00:07.657Z,0
2017-01-15T04:01:17.119Z,0
2017-01-15T04:02:26.972Z,0
2017-01-15T04:03:36.194Z,0
2017-01-15T04:04:45.662Z,0
2017-01-15T04:05:55.513Z,0
2017-01-15T04:07:04.209Z,0
2017-01-15T04:08:12.887Z,0
2017-01-15T04:09:22.658Z,0
2017-01-15T04:10:31.348Z,0
2017-01-15T04:11:40.816Z,0
2017-01-15T04:12:49.494Z,0
2017-01-15T04:13:58.951Z,0
2017-01-15T04:15:07.929Z,0
2017-01-15T04:16:17.008Z,0
2017-01-15T04:17:26.091Z,0
2017-01-15T04:18:35.551Z,0
2017-01-15T04:19:44.228Z,0
2017-01-15T04:20:53.442Z,0
2017-01-15T04:22:02.896Z,0
2017-01-15T04:23:12.342Z,0
2017-01-15T04:24:22.194Z,0
2017-01-15T04:25:31.260Z,0
2017-01-15T04:26:40.234Z,0
2017-01-15T04:27:48.911Z,0
2017-01-15T04:28:57.661Z,0
2017-01-15T04:30:06.351Z,0
2017-01-15T04:31:15.809Z,0
2017-01-15T04:32:25.016Z,0
2017-01-15T04:33:34.081Z,0
2017-01-15T04:34:44.333Z,0
2017-01-15T04:35:53.847Z,0
2017-01-15T04:37:02.929Z,0
2017-01-15T04:38:12.774Z,0
2017-01-15T04:39:22.616Z,0
2017-01-15T04:40:32.087Z,0
2017-01-15T04:41:40.773Z,0
2017-01-15T04:42:49.832Z,0
2017-01-15T04:43:58.854Z,0
2017-01-15T04:45:07.530Z,0
2017-01-15T04:46:16.986Z,0
2017-01-15T04:47:25.656Z,0
2017-01-15T04:48:34.732Z,0
2017-01-15T04:49:43.795Z,0
2017-01-15T04:50:52.478Z,0
2017-01-15T04:52:01.541Z,0
2017-01-15T04:53:10.608Z,0
2017-01-15T04:54:20.064Z,0
2017-01-15T04:55:30.225Z,0
2017-01-15T04:56:38.914Z,0
2017-01-15T04:57:48.661Z,0
2017-01-15T04:58:58.126Z,0
2017-01-15T05:00:07.208Z,0
2017-01-15T05:01:16.202Z,0
2017-01-15T05:02:24.897Z,0
2017-01-15T05:03:33.603Z,0
2017-01-15T05:04:43.356Z,0
2017-01-15T05:05:52.425Z,0
2017-01-15T05:07:02.247Z,0
2017-01-15T05:08:11.720Z,0
2017-01-15T05:09:20.805Z,0
2017-01-15T05:10:30.272Z,0
2017-01-15T05:11:39.764Z,0
2017-01-15T05:12:49.647Z,0
2017-01-15T05:13:58.320Z,0
2017-01-15T05:15:07.008Z,0
2017-01-15T05:16:16.098Z,0
2017-01-15T05:17:24.770Z,0
2017-01-15T05:18:33.451Z,0
2017-01-15T05:19:42.122Z,0
2017-01-15T05:20:51.989Z,0
2017-01-15T05:22:00.664Z,0
2017-01-15T05:23:09.737Z,0
2017-01-15T05:24:19.173Z,0
2017-01-15T05:25:28.631Z,0
2017-01-15T05:26:37.704Z,0
2017-01-15T05:27:46.389Z,0
2017-01-15T05:28:55.462Z,0
2017-01-15T05:30:05.161Z,0
2017-01-15T05:31:14.626Z,0
2017-01-15T05:32:23.705Z,0
2017-01-15T05:33:32.782Z,0
2017-01-15T05:34:41.844Z,0
2017-01-15T05:35:50.628Z,0
2017-01-15T05:36:59.313Z,0
2017-01-15T05:38:08.383Z,0
2017-01-15T05:39:17.902Z,0
2017-01-15T05:40:27.388Z,0
2017-01-15T05:41:37.146Z,0
2017-01-15T05:42:45.848Z,0
2017-01-15T05:43:54.529Z,0
2017-01-15T05:45:03.601Z,0
2017-01-15T05:46:13.065Z,0
2017-01-15T05:47:22.142Z,0
2017-01-15T05:48:31.231Z,0
2017-01-15T05:49:40.684Z,0
2017-01-15T05:50:49.750Z,0
2017-01-15T05:51:58.436Z,0
2017-01-15T05:53:07.515Z,0
2017-01-15T05:54:16.983Z,0
2017-01-15T05:55:26.467Z,0
2017-01-15T05:56:35.925Z,0
2017-01-15T05:57:44.602Z,0
2017-01-15T05:58:53.815Z,0
2017-01-15T06:00:02.901Z,0
2017-01-15T06:01:11.579Z,0
2017-01-15T06:02:20.644Z,0
2017-01-15T06:03:29.317Z,0
2017-01-15T06:04:38.684Z,0
2017-01-15T06:05:47.369Z,0
2017-01-15T06:06:56.439Z,0
2017-01-15T06:08:05.902Z,0
2017-01-15T06:09:14.583Z,0
2017-01-15T06:10:23.602Z,0
2017-01-15T06:11:32.278Z,0
2017-01-15T06:12:40.948Z,0
2017-01-15T06:13:50.416Z,0
2017-01-15T06:14:59.885Z,0
2017-01-15T06:16:09.517Z,0
2017-01-15T06:17:18.583Z,0
2017-01-15T06:18:27.275Z,0
2017-01-15T06:19:36.345Z,0
2017-01-15T06:20:45.420Z,0
2017-01-15T06:21:54.094Z,0
2017-01-15T06:23:03.558Z,0
2017-01-15T06:24:12.621Z,0
2017-01-15T06:25:21.703Z,0
2017-01-15T06:26:31.153Z,0
2017-01-15T06:27:40.190Z,0
2017-01-15T06:28:48.876Z,0
2017-01-15T06:29:57.948Z,0
2017-01-15T06:31:07.015Z,0
2017-01-15T06:32:16.113Z,0
2017-01-15T06:33:25.538Z,0
2017-01-15T06:34:34.210Z,0
2017-01-15T06:35:43.682Z,0
2017-01-15T06:36:52.383Z,0
2017-01-15T06:38:01.079Z,0
2017-01-15T06:39:10.134Z,0
2017-01-15T06:40:18.828Z,0
2017-01-15T06:41:27.894Z,0
2017-01-15T06:42:36.966Z,0
2017-01-15T06:43:46.032Z,0
2017-01-15T06:44:55.230Z,0
2017-01-15T06:46:04.696Z,0
2017-01-15T06:47:14.549Z,0
2017-01-15T06:48:23.614Z,0
2017-01-15T06:49:32.698Z,0
2017-01-15T06:50:42.703Z,0
2017-01-15T06:51:52.548Z,0
2017-01-15T06:53:01.610Z,0
2017-01-15T06:54:10.290Z,0
2017-01-15T06:55:19.363Z,0
2017-01-15T06:56:29.905Z,0
2017-01-15T06:57:38.603Z,0
2017-01-15T06:58:47.666Z,0
2017-01-15T06:59:56.749Z,0
2017-01-15T07:01:05.820Z,0
2017-01-15T07:02:15.572Z,0
2017-01-15T07:03:25.029Z,0
2017-01-15T07:04:34.486Z,0
2017-01-15T07:05:43.166Z,4
2017-01-15T07:06:52.245Z,4
2017-01-15T07:08:01.612Z,4
2017-01-15T07:09:10.288Z,8
2017-01-15T07:10:19.745Z,4
2017-01-15T07:11:28.424Z,8
2017-01-15T07:12:37.109Z,8
2017-01-15T07:13:47.394Z,8
2017-01-15T07:14:56.463Z,12
2017-01-15T07:16:05.553Z,12
2017-01-15T07:17:14.655Z,12
2017-01-15T07:18:23.735Z,16
2017-01-15T07:19:32.507Z,16
2017-01-15T07:20:41.583Z,16
2017-01-15T07:21:50.273Z,16
2017-01-15T07:22:59.745Z,20
2017-01-15T07:24:08.876Z,16
2017-01-15T07:25:18.286Z,20
2017-01-15T07:26:27.437Z,16
2017-01-15T07:27:36.904Z,16
2017-01-15T07:28:45.985Z,16
2017-01-15T07:29:55.838Z,20
2017-01-15T07:31:05.197Z,20
2017-01-15T07:32:14.655Z,20
2017-01-15T07:33:23.370Z,20
2017-01-15T07:34:33.220Z,20
2017-01-15T07:35:42.282Z,24
2017-01-15T07:36:51.383Z,28
2017-01-15T07:38:00.871Z,24
2017-01-15T07:39:09.933Z,32
2017-01-15T07:40:19.408Z,36
2017-01-15T07:41:29.258Z,44
2017-01-15T07:42:39.547Z,48
2017-01-15T07:43:49.402Z,56
2017-01-15T07:44:58.864Z,64
2017-01-15T07:46:07.580Z,68
2017-01-15T07:47:16.666Z,84
2017-01-15T07:48:26.430Z,92
2017-01-15T07:49:35.155Z,100
2017-01-15T07:50:44.238Z,108
2017-01-15T07:51:53.328Z,112
2017-01-15T07:53:03.258Z,116
2017-01-15T07:54:11.953Z,128
2017-01-15T07:55:20.645Z,128
2017-01-15T07:56:30.119Z,128
2017-01-15T07:57:39.972Z,108
2017-01-15T07:58:49.050Z,96
2017-01-15T07:59:58.123Z,104
2017-01-15T08:01:07.576Z,100
2017-01-15T08:02:16.264Z,88
2017-01-15T08:03:24.976Z,104
2017-01-15T08:04:34.045Z,104
2017-01-15T08:05:43.248Z,96
2017-01-15T08:06:52.377Z,108
2017-01-15T08:08:01.459Z,120
2017-01-15T08:09:10.166Z,124
2017-01-15T08:10:19.231Z,120
2017-01-15T08:11:28.610Z,132
2017-01-15T08:12:37.287Z,124
2017-01-15T08:13:46.739Z,140
2017-01-15T08:14:56.194Z,136
2017-01-15T08:16:05.647Z,164
2017-01-15T08:17:15.033Z,148
2017-01-15T08:18:24.103Z,164
2017-01-15T08:19:33.169Z,176
2017-01-15T08:20:42.243Z,176
2017-01-15T08:21:51.702Z,164
2017-01-15T08:23:01.115Z,160
2017-01-15T08:24:09.797Z,152
2017-01-15T08:25:18.507Z,216
2017-01-15T08:26:27.216Z,236
2017-01-15T08:27:35.897Z,292
2017-01-15T08:28:45.456Z,312
2017-01-15T08:29:54.521Z,384
2017-01-15T08:31:04.375Z,340
2017-01-15T08:32:13.841Z,412
2017-01-15T08:33:23.292Z,504
2017-01-15T08:34:32.125Z,468
2017-01-15T08:35:41.196Z,512
2017-01-15T08:36:50.662Z,572
2017-01-15T08:38:00.121Z,544
2017-01-15T08:39:09.193Z,644
2017-01-15T08:40:18.268Z,540
2017-01-15T08:41:28.118Z,524
2017-01-15T08:42:37.191Z,536
2017-01-15T08:43:46.645Z,440
2017-01-15T08:44:55.720Z,400
2017-01-15T08:46:04.551Z,356
2017-01-15T08:47:14.011Z,336
2017-01-15T08:48:22.695Z,324
2017-01-15T08:49:31.369Z,320
2017-01-15T08:50:40.857Z,300
2017-01-15T08:51:49.934Z,316
2017-01-15T08:52:59.017Z,320
2017-01-15T08:54:08.109Z,324
2017-01-15T08:55:16.784Z,320
2017-01-15T08:56:26.250Z,348
2017-01-15T08:57:35.333Z,304
2017-01-15T08:58:45.192Z,316
2017-01-15T08:59:54.683Z,340
2017-01-15T09:01:03.360Z,356
2017-01-15T09:02:12.432Z,368
2017-01-15T09:03:21.504Z,356
2017-01-15T09:04:30.194Z,428
2017-01-15T09:05:38.918Z,440
2017-01-15T09:06:47.615Z,508
2017-01-15T09:07:56.296Z,596
2017-01-15T09:09:05.548Z,588
2017-01-15T09:10:14.629Z,516
2017-01-15T09:11:23.701Z,512
2017-01-15T09:12:32.766Z,396
2017-01-15T09:13:41.440Z,368
2017-01-15T09:14:50.488Z,420
2017-01-15T09:15:59.587Z,520
2017-01-15T09:17:09.034Z,728
2017-01-15T09:18:18.090Z,676
2017-01-15T09:19:26.766Z,784
2017-01-15T09:20:35.992Z,792
2017-01-15T09:21:45.068Z,980
2017-01-15T09:22:54.140Z,1164
2017-01-15T09:24:04.444Z,1184
2017-01-15T09:25:13.130Z,1172
2017-01-15T09:26:23.284Z,1156
2017-01-15T09:27:31.961Z,1080
2017-01-15T09:28:40.641Z,1008
2017-01-15T09:29:50.096Z,956
2017-01-15T09:30:59.158Z,856
2017-01-15T09:32:08.328Z,744
2017-01-15T09:33:17.009Z,628
2017-01-15T09:34:26.750Z,600
2017-01-15T09:35:35.837Z,564
2017-01-15T09:36:44.923Z,564
2017-01-15T09:37:53.717Z,480
2017-01-15T09:39:02.391Z,456
2017-01-15T09:40:11.855Z,476
2017-01-15T09:41:20.921Z,468
2017-01-15T09:42:29.606Z,360
2017-01-15T09:43:38.819Z,296
2017-01-15T09:44:48.279Z,368
2017-01-15T09:45:57.342Z,444
2017-01-15T09:47:06.812Z,600
2017-01-15T09:48:15.493Z,720
2017-01-15T09:49:24.907Z,856
2017-01-15T09:50:34.746Z,1080
2017-01-15T09:51:43.425Z,1380
2017-01-15T09:52:52.886Z,1372
2017-01-15T09:54:02.761Z,1544
2017-01-15T09:55:12.238Z,1192
2017-01-15T09:56:22.085Z,792
2017-01-15T09:57:31.209Z,720
2017-01-15T09:58:41.089Z,920
2017-01-15T09:59:50.555Z,740
2017-01-15T10:00:59.927Z,764
2017-01-15T10:02:09.000Z,792
2017-01-15T10:03:18.067Z,812
2017-01-15T10:04:27.143Z,972
2017-01-15T10:05:36.222Z,884
2017-01-15T10:06:45.645Z,1028
2017-01-15T10:07:54.323Z,876
2017-01-15T10:09:03.406Z,716
2017-01-15T10:10:12.084Z,620
2017-01-15T10:11:20.774Z,652
2017-01-15T10:12:29.821Z,584
2017-01-15T10:13:38.898Z,636
2017-01-15T10:14:47.583Z,756
2017-01-15T10:15:56.653Z,708
2017-01-15T10:17:06.131Z,1044
2017-01-15T10:18:15.624Z,1208
2017-01-15T10:19:24.294Z,1040
2017-01-15T10:20:33.762Z,1020
2017-01-15T10:21:42.850Z,1028
2017-01-15T10:22:51.931Z,916
2017-01-15T10:24:00.783Z,904
2017-01-15T10:25:09.867Z,960
2017-01-15T10:26:18.934Z,840
2017-01-15T10:27:28.415Z,864
2017-01-15T10:28:37.101Z,696
2017-01-15T10:29:46.540Z,560
2017-01-15T10:30:56.004Z,628
2017-01-15T10:32:05.077Z,664
2017-01-15T10:33:14.952Z,696
2017-01-15T10:34:23.646Z,592
2017-01-15T10:35:32.652Z,436
2017-01-15T10:36:41.742Z,408
2017-01-15T10:37:50.828Z,408
2017-01-15T10:38:59.903Z,404
2017-01-15T10:40:08.977Z,404
2017-01-15T10:41:18.398Z,472
2017-01-15T10:42:27.476Z,656
2017-01-15T10:43:36.594Z,676
2017-01-15T10:44:45.276Z,540
2017-01-15T10:45:53.981Z,516
2017-01-15T10:47:03.469Z,604
2017-01-15T10:48:12.184Z,580
2017-01-15T10:49:21.281Z,536
2017-01-15T10:50:30.065Z,604
2017-01-15T10:51:39.560Z,620
2017-01-15T10:52:49.563Z,848
2017-01-15T10:53:58.641Z,780
2017-01-15T10:55:07.362Z,696
2017-01-15T10:56:16.930Z,780
2017-01-15T10:57:25.632Z,996
2017-01-15T10:58:34.328Z,1056
2017-01-15T10:59:43.817Z,936
2017-01-15T11:00:52.547Z,848
2017-01-15T11:02:01.688Z,1000
2017-01-15T11:03:11.179Z,1096
2017-01-15T11:04:20.170Z,940
2017-01-15T11:05:28.861Z,824
2017-01-15T11:06:37.572Z,952
2017-01-15T11:07:46.298Z,756
2017-01-15T11:08:55.379Z,724
2017-01-15T11:10:04.634Z,700
2017-01-15T11:11:14.104Z,724
2017-01-15T11:12:23.168Z,792
2017-01-15T11:13:31.863Z,696
2017-01-15T11:14:41.351Z,632
2017-01-15T11:15:51.212Z,640
2017-01-15T11:17:01.004Z,616
2017-01-15T11:18:10.516Z,588
2017-01-15T11:19:19.587Z,556
2017-01-15T11:20:28.840Z,660
2017-01-15T11:23:19.474Z,744
2017-01-15T11:24:28.931Z,788
2017-01-15T11:25:37.626Z,820
2017-01-15T11:26:46.712Z,832
2017-01-15T11:27:55.400Z,856
2017-01-15T11:29:04.487Z,860
2017-01-15T11:30:13.937Z,824
2017-01-15T11:31:22.613Z,780
2017-01-15T11:35:04.045Z,1012
2017-01-15T11:36:12.760Z,944
2017-01-15T11:37:22.271Z,880
2017-01-15T11:38:31.746Z,984
2017-01-15T11:39:40.816Z,960
2017-01-15T11:40:49.896Z,1060
2017-01-15T11:41:59.349Z,1012
2017-01-15T11:43:08.419Z,1012
2017-01-15T11:44:17.103Z,968
2017-01-15T11:45:26.204Z,1056
2017-01-15T11:46:34.899Z,1028
2017-01-15T11:47:43.966Z,1036
2017-01-15T11:48:52.799Z,1104
2017-01-15T11:50:01.860Z,1156
2017-01-15T11:51:10.928Z,1068
2017-01-15T11:52:20.400Z,920
2017-01-15T11:53:29.085Z,980
2017-01-15T11:54:38.266Z,1028
2017-01-15T11:55:47.730Z,824
2017-01-15T11:56:56.801Z,796
2017-01-15T11:58:05.889Z,844
2017-01-15T11:59:14.648Z,768
2017-01-15T12:00:24.405Z,756
2017-01-15T12:01:33.093Z,648
2017-01-15T12:02:42.171Z,732
2017-01-15T12:03:51.634Z,752
2017-01-15T12:05:00.703Z,764
2017-01-15T12:06:09.941Z,660
2017-01-15T12:07:19.400Z,700
2017-01-15T12:08:28.867Z,752
2017-01-15T12:09:37.937Z,772
2017-01-15T12:10:47.008Z,880
2017-01-15T12:11:56.613Z,920
2017-01-15T12:13:05.692Z,840
2017-01-15T12:14:15.143Z,872
2017-01-15T12:15:24.620Z,784
2017-01-15T12:16:33.307Z,720
2017-01-15T12:17:42.864Z,656
2017-01-15T12:18:51.538Z,688
2017-01-15T12:20:00.247Z,764
2017-01-15T12:21:09.312Z,760
2017-01-15T12:22:17.998Z,760
2017-01-15T12:23:27.758Z,760
2017-01-15T12:24:36.839Z,796
2017-01-15T12:25:45.908Z,852
2017-01-15T12:26:55.750Z,976
2017-01-15T12:28:04.832Z,964
2017-01-15T12:29:14.192Z,1032
2017-01-15T12:30:22.860Z,1032
2017-01-15T12:31:32.317Z,1148
2017-01-15T12:32:41.005Z,1236
2017-01-15T12:33:50.076Z,1368
2017-01-15T12:34:59.057Z,1332
2017-01-15T12:36:08.910Z,1208
2017-01-15T12:37:17.983Z,1264
2017-01-15T12:38:27.077Z,1208
2017-01-15T12:39:35.787Z,1204
2017-01-15T12:40:44.868Z,1256
2017-01-15T12:41:53.542Z,1228
2017-01-15T12:43:02.226Z,1120
2017-01-15T12:44:11.301Z,1132
2017-01-15T12:45:19.995Z,1040
2017-01-15T12:46:29.178Z,1076
2017-01-15T12:47:37.874Z,1084
2017-01-15T12:48:46.957Z,1076
2017-01-15T12:49:56.420Z,1064
2017-01-15T12:51:05.498Z,1076
2017-01-15T12:52:14.178Z,1080
2017-01-15T12:53:23.254Z,1016
2017-01-15T12:54:31.955Z,992
2017-01-15T12:55:40.634Z,1000
2017-01-15T12:56:49.314Z,1016
2017-01-15T12:57:58.482Z,1012
2017-01-15T12:59:07.544Z,972
2017-01-15T13:00:17.021Z,1000
2017-01-15T13:01:26.091Z,1020
2017-01-15T13:02:34.782Z,964
2017-01-15T13:03:43.853Z,952
2017-01-15T13:04:52.942Z,940
2017-01-15T13:06:02.408Z,956
2017-01-15T13:07:11.475Z,984
2017-01-15T13:08:20.545Z,1032
2017-01-15T13:09:30.365Z,1012
2017-01-15T13:10:39.051Z,980
2017-01-15T13:11:47.728Z,952
2017-01-15T13:12:56.411Z,936
2017-01-15T13:14:06.265Z,924
2017-01-15T13:15:15.697Z,892
2017-01-15T13:16:24.389Z,900
2017-01-15T13:17:33.075Z,884
2017-01-15T13:18:42.539Z,864
2017-01-15T13:19:52.004Z,876
2017-01-15T13:21:01.682Z,912
2017-01-15T13:22:11.175Z,848
2017-01-15T13:23:20.639Z,876
2017-01-15T13:24:30.507Z,912
2017-01-15T13:25:39.984Z,996
2017-01-15T13:26:49.147Z,1116
2017-01-15T13:27:58.227Z,1108
2017-01-15T13:29:07.719Z,956
2017-01-15T13:30:16.797Z,900
2017-01-15T13:31:25.483Z,804
2017-01-15T13:32:35.319Z,816
2017-01-15T13:33:45.164Z,848
2017-01-15T13:34:53.848Z,812
2017-01-15T13:36:02.521Z,888
2017-01-15T13:37:11.218Z,840
2017-01-15T13:38:20.051Z,780
2017-01-15T13:39:29.924Z,728
2017-01-15T13:40:39.034Z,712
2017-01-15T13:41:48.098Z,684
2017-01-15T13:42:57.567Z,604
2017-01-15T13:44:06.626Z,548
2017-01-15T13:45:16.109Z,568
2017-01-15T13:46:26.379Z,576
2017-01-15T13:47:35.835Z,548
2017-01-15T13:48:44.899Z,544
2017-01-15T13:49:53.702Z,476
2017-01-15T13:51:02.377Z,468
2017-01-15T13:52:11.458Z,480
2017-01-15T13:53:20.918Z,480
2017-01-15T13:54:30.002Z,468
2017-01-15T13:55:39.617Z,500
2017-01-15T13:56:48.692Z,540
2017-01-15T13:57:57.767Z,536
2017-01-15T13:59:07.234Z,504
2017-01-15T14:00:16.697Z,520
2017-01-15T14:01:25.371Z,520
2017-01-15T14:02:34.436Z,504
2017-01-15T14:03:43.898Z,488
2017-01-15T14:04:53.349Z,480
2017-01-15T14:06:02.416Z,452
2017-01-15T14:07:11.600Z,412
2017-01-15T14:08:21.098Z,384
2017-01-15T14:09:30.184Z,308
2017-01-15T14:10:39.643Z,284
2017-01-15T14:11:49.110Z,328
2017-01-15T14:12:58.093Z,328
2017-01-15T14:14:07.153Z,284
2017-01-15T14:15:16.236Z,288
2017-01-15T14:16:25.304Z,312
2017-01-15T14:17:34.407Z,304
2017-01-15T14:18:43.616Z,332
2017-01-15T14:19:52.281Z,328
2017-01-15T14:21:00.981Z,328
2017-01-15T14:22:10.438Z,300
2017-01-15T14:23:20.712Z,304
2017-01-15T14:24:30.139Z,284
2017-01-15T14:25:39.224Z,264
2017-01-15T14:26:48.705Z,296
2017-01-15T14:27:57.782Z,272
2017-01-15T14:29:07.232Z,244
2017-01-15T14:30:16.604Z,244
2017-01-15T14:31:26.060Z,244
2017-01-15T14:32:35.516Z,228
2017-01-15T14:33:44.593Z,216
2017-01-15T14:34:54.436Z,196
2017-01-15T14:36:03.818Z,180
2017-01-15T14:37:12.509Z,176
2017-01-15T14:38:22.366Z,192
2017-01-15T14:39:31.854Z,208
2017-01-15T14:40:41.308Z,216
2017-01-15T14:41:50.877Z,236
2017-01-15T14:42:59.951Z,264
2017-01-15T14:44:09.015Z,244
2017-01-15T14:45:18.382Z,220
2017-01-15T14:46:27.459Z,220
2017-01-15T14:47:36.913Z,188
2017-01-15T14:48:45.986Z,168
2017-01-15T14:49:54.672Z,172
2017-01-15T14:51:03.738Z,180
2017-01-15T14:52:13.213Z,184
2017-01-15T14:53:22.630Z,180
2017-01-15T14:54:32.106Z,168
2017-01-15T14:55:41.205Z,168
2017-01-15T14:56:51.101Z,176
2017-01-15T14:57:59.805Z,172
2017-01-15T14:59:08.893Z,156
2017-01-15T15:00:18.023Z,140
2017-01-15T15:01:26.798Z,144
2017-01-15T15:02:36.279Z,140
2017-01-15T15:03:46.533Z,128
2017-01-15T15:04:55.699Z,124
2017-01-15T15:06:04.781Z,124
2017-01-15T15:07:13.518Z,128
2017-01-15T15:08:23.058Z,132
2017-01-15T15:09:33.783Z,148
2017-01-15T15:10:43.501Z,156
2017-01-15T15:11:52.652Z,140
2017-01-15T15:13:01.880Z,148
2017-01-15T15:14:10.956Z,144
2017-01-15T15:15:19.691Z,136
2017-01-15T15:16:30.112Z,144
2017-01-15T15:17:39.013Z,140
2017-01-15T15:18:48.645Z,140
2017-01-15T15:19:57.423Z,136
2017-01-15T15:21:06.273Z,140
2017-01-15T15:22:15.518Z,136
2017-01-15T15:23:24.602Z,120
2017-01-15T15:24:33.298Z,108
2017-01-15T15:25:41.989Z,104
2017-01-15T15:26:51.079Z,116
2017-01-15T15:28:00.070Z,120
2017-01-15T15:29:08.772Z,120
2017-01-15T15:30:17.838Z,120
2017-01-15T15:31:27.314Z,116
2017-01-15T15:32:36.378Z,108
2017-01-15T15:33:45.783Z,96
2017-01-15T15:34:54.463Z,88
2017-01-15T15:36:03.542Z,84
2017-01-15T15:37:12.604Z,80
2017-01-15T15:38:21.671Z,84
2017-01-15T15:39:31.179Z,88
2017-01-15T15:40:40.253Z,84
2017-01-15T15:41:49.722Z,80
2017-01-15T15:42:59.213Z,76
2017-01-15T15:44:08.314Z,68
2017-01-15T15:45:18.424Z,68
2017-01-15T15:46:27.882Z,60
2017-01-15T15:47:36.961Z,56
2017-01-15T15:48:46.054Z,56
2017-01-15T15:49:54.731Z,48
2017-01-15T15:51:03.983Z,48
2017-01-15T15:52:12.671Z,40
2017-01-15T15:53:22.138Z,36
2017-01-15T15:54:32.018Z,32
2017-01-15T15:55:41.092Z,28
2017-01-15T15:56:50.562Z,24
2017-01-15T15:57:59.651Z,20
2017-01-15T15:59:08.726Z,20
2017-01-15T16:00:17.802Z,20
2017-01-15T16:01:26.875Z,16
2017-01-15T16:02:36.654Z,16
2017-01-15T16:03:45.782Z,12
2017-01-15T16:04:54.869Z,12
2017-01-15T16:06:03.544Z,12
2017-01-15T16:07:13.032Z,8
2017-01-15T16:08:22.525Z,8
2017-01-15T16:09:31.602Z,8
2017-01-15T16:10:40.283Z,4
2017-01-15T16:11:49.357Z,8
2017-01-15T16:12:58.839Z,4
2017-01-15T16:14:07.907Z,4
2017-01-15T16:15:16.987Z,0
2017-01-15T16:16:26.443Z,4
2017-01-15T16:17:36.331Z,4
2017-01-15T16:18:45.059Z,8
2017-01-15T16:19:54.879Z,8
2017-01-15T16:21:03.557Z,4
2017-01-15T16:22:12.651Z,4
2017-01-15T16:23:21.717Z,4
2017-01-15T16:24:31.180Z,8
2017-01-15T16:25:40.249Z,8
2017-01-15T16:26:50.120Z,4
2017-01-15T16:28:01.569Z,4